Time;durP1;ratioP1;P1;durP2;ratioP2;P2;SDS_P1;SDS_P2;PMS_P1;PMS_P2;Temp;Humidity;BMP_temperature;BMP_pressure;BME280_temperature;BME280_humidity;BME280_pressure;Samples;Min_cycle;Max_cycle;Signal;HPM_P1;HPM_P2
2022/12/07 00:01:44;;;;;;;;;;;;;;;6.96;84.46;101913.38;7347825;19;20374;-68
2022/12/07 00:04:13;;;;;;;;;;;;;;;6.92;84.55;101910.09;7350912;19;21134;-65
2022/12/07 00:06:43;;;;;;;;;;;;;;;6.92;85.12;101914.50;7349194;19;19927;-67
2022/12/07 00:09:12;;;;;;;;;;;;;;;6.92;84.77;101917.09;7350332;19;20291;-65
2022/12/07 00:11:38;;;;;;;;;;;;;;;6.91;84.68;101918.06;7348157;19;19918;-65
2022/12/07 00:14:07;;;;;;;;;;;;;;;6.89;84.85;101915.56;7350850;19;19919;-67
2022/12/07 00:16:34;;;;;;;;;;;;;;;6.90;85.22;101914.63;7346570;19;19923;-65
2022/12/07 00:19:02;;;;;;;;;;;;;;;6.90;84.65;101911.16;7350164;19;19930;-66
2022/12/07 00:21:33;;;;;;;;;;;;;;;6.91;84.85;101920.69;7349303;19;20002;-66
2022/12/07 00:24:00;;;;;;;;;;;;;;;6.87;85.04;101915.66;7349377;19;19925;-65
2022/12/07 00:26:28;;;;;;;;;;;;;;;6.86;84.62;101906.13;7346903;19;21131;-66
2022/12/07 00:28:56;;;;;;;;;;;;;;;6.86;84.67;101918.34;7347961;19;19926;-67
2022/12/07 00:31:24;;;;;;;;;;;;;;;6.83;84.74;101918.56;7365587;19;19949;-67
2022/12/07 00:33:51;;;;;;;;;;;;;;;6.80;84.51;101918.78;7348513;19;19927;-66
2022/12/07 00:36:19;;;;;;;;;;;;;;;6.79;84.92;101917.09;7347318;19;19919;-66
2022/12/07 00:38:52;;;;;;;;;;;;;;;6.74;84.54;101927.03;7348934;19;20010;-67
2022/12/07 00:41:23;;;;;;;;;;;;;;;6.68;84.79;101919.56;7352051;19;19918;-67
2022/12/07 00:43:49;;;;;;;;;;;;;;;6.64;85.37;101926.78;7348397;19;19927;-66
2022/12/07 00:46:17;;;;;;;;;;;;;;;6.63;85.32;101919.03;7348448;19;19923;-67
2022/12/07 00:48:44;;;;;;;;;;;;;;;6.59;85.40;101913.19;7348532;19;19929;-67
2022/12/07 00:51:15;;;;;;;;;;;;;;;6.60;85.10;101914.03;7345483;19;20879;-65
2022/12/07 00:53:41;;;;;;;;;;;;;;;6.59;85.35;101904.50;7351938;19;19923;-65
2022/12/07 00:56:11;;;;;;;;;;;;;;;6.54;85.71;101907.41;7353779;19;20297;-66
2022/12/07 00:58:38;;;;;;;;;;;;;;;6.51;85.81;101906.75;7351566;19;20106;-66
2022/12/07 01:01:05;;;;;;;;;;;;;;;6.50;86.17;101899.88;7355914;19;19919;-65
2022/12/07 01:03:32;;;;;;;;;;;;;;;6.50;86.02;101903.34;7354865;19;19915;-66
2022/12/07 01:06:00;;;;;;;;;;;;;;;6.50;85.75;101905.94;7357504;19;20026;-66
2022/12/07 01:08:27;;;;;;;;;;;;;;;6.51;86.21;101907.59;7353103;19;19958;-65
2022/12/07 01:11:00;;;;;;;;;;;;;;;6.51;85.77;101910.22;7355154;19;19929;-68
2022/12/07 01:13:28;;;;;;;;;;;;;;;6.51;86.00;101899.75;7353873;19;19927;-67
2022/12/07 01:15:57;;;;;;;;;;;;;;;6.51;85.42;101896.31;7351073;19;20553;-66
2022/12/07 01:18:24;;;;;;;;;;;;;;;6.44;85.40;101890.66;7354359;19;19941;-65
2022/12/07 01:21:23;;;;;;;;;;;;;;;6.39;86.13;101893.56;7352159;19;19927;-67
2022/12/07 01:23:50;;;;;;;;;;;;;;;6.38;86.08;101893.66;7353144;19;20369;-67
2022/12/07 01:26:19;;;;;;;;;;;;;;;6.36;86.35;101898.97;7354739;19;19930;-66
2022/12/07 01:28:46;;;;;;;;;;;;;;;6.34;86.23;101895.66;7354169;19;19930;-66
2022/12/07 01:31:15;;;;;;;;;;;;;;;6.33;86.33;101887.91;7356388;19;19919;-66
2022/12/07 01:33:42;;;;;;;;;;;;;;;6.31;86.51;101889.75;7352403;19;19933;-66
2022/12/07 01:36:12;;;;;;;;;;;;;;;6.30;86.52;101893.31;7354234;19;19945;-66
2022/12/07 01:38:39;;;;;;;;;;;;;;;6.29;86.79;101892.50;7355344;19;20251;-66
2022/12/07 01:41:06;;;;;;;;;;;;;;;6.28;86.71;101887.34;7355707;19;19933;-65
2022/12/07 01:43:33;;;;;;;;;;;;;;;6.30;86.47;101895.91;7354186;19;19926;-65
2022/12/07 01:46:00;;;;;;;;;;;;;;;6.31;86.37;101890.59;7353350;19;19927;-66
2022/12/07 01:48:30;;;;;;;;;;;;;;;6.32;86.31;101899.28;7353559;19;19911;-65
2022/12/07 01:51:00;;;;;;;;;;;;;;;6.30;86.56;101901.97;7352669;19;19927;-65
2022/12/07 01:53:29;;;;;;;;;;;;;;;6.28;86.68;101890.81;7354346;19;19967;-67
2022/12/07 01:55:56;;;;;;;;;;;;;;;6.28;86.78;101898.66;7353482;19;19922;-65
2022/12/07 01:58:23;;;;;;;;;;;;;;;6.28;86.71;101897.81;7348380;19;19926;-66
2022/12/07 02:00:50;;;;;;;;;;;;;;;6.28;86.60;101901.25;7353171;19;19958;-65
2022/12/07 02:03:23;;;;;;;;;;;;;;;6.29;86.91;101897.72;7352972;19;19922;-66
2022/12/07 02:05:51;;;;;;;;;;;;;;;6.29;86.83;101897.72;7351697;19;20327;-67
2022/12/07 02:08:18;;;;;;;;;;;;;;;6.29;86.42;101891.66;7352089;19;19926;-65
2022/12/07 02:10:45;;;;;;;;;;;;;;;6.30;86.61;101898.53;7352767;19;20949;-65
2022/12/07 02:13:24;;;;;;;;;;;;;;;6.31;86.72;101901.06;7352683;19;19919;-67
2022/12/07 02:16:04;;;;;;;;;;;;;;;6.33;86.46;101901.81;7352962;19;20624;-66
2022/12/07 02:18:34;;;;;;;;;;;;;;;6.37;86.21;101889.38;7350074;19;19923;-66
2022/12/07 02:21:01;;;;;;;;;;;;;;;6.37;85.78;101895.44;7352602;19;19923;-67
2022/12/07 02:23:27;;;;;;;;;;;;;;;6.37;86.10;101891.97;7352358;19;19930;-66
2022/12/07 02:31:41;;;;;;;;;;;;;;;6.36;85.89;101893.75;7346139;19;19926;-66
2022/12/07 02:34:11;;;;;;;;;;;;;;;6.38;86.04;101901.50;7352986;19;21644;-66
2022/12/07 02:36:47;;;;;;;;;;;;;;;6.35;86.04;101897.28;7352483;19;19995;-66
2022/12/07 02:39:20;;;;;;;;;;;;;;;6.37;86.26;101895.44;7351599;19;20766;-68
2022/12/07 02:41:48;;;;;;;;;;;;;;;6.38;85.94;101891.06;7360038;19;19918;-66
2022/12/07 02:44:17;;;;;;;;;;;;;;;6.35;85.57;101892.06;7352717;19;19926;-66
2022/12/07 02:46:48;;;;;;;;;;;;;;;6.32;85.91;101878.38;7357640;19;20785;-65
2022/12/07 02:49:16;;;;;;;;;;;;;;;6.29;86.46;101883.81;7354805;19;19922;-66
2022/12/07 02:51:43;;;;;;;;;;;;;;;6.28;86.81;101889.97;7322500;19;19919;-67
2022/12/07 02:54:14;;;;;;;;;;;;;;;6.30;86.87;101882.84;7349147;19;19927;-65
2022/12/07 02:56:41;;;;;;;;;;;;;;;6.32;86.55;101887.06;7351720;19;20037;-66
2022/12/07 02:59:26;;;;;;;;;;;;;;;6.33;86.40;101882.66;7346675;19;20313;-65
2022/12/07 03:01:59;;;;;;;;;;;;;;;6.29;86.19;101882.03;7348814;19;19919;-66
2022/12/07 03:04:42;;;;;;;;;;;;;;;6.26;86.87;101882.22;7351591;19;19915;-66
2022/12/07 03:07:28;;;;;;;;;;;;;;;6.19;86.98;101874.88;7346434;19;19919;-65
2022/12/07 03:10:02;;;;;;;;;;;;;;;6.17;86.98;101877.59;7352255;19;19923;-66
2022/12/07 03:12:38;;;;;;;;;;;;;;;6.19;86.93;101874.88;7347844;19;20233;-66
2022/12/07 03:15:07;;;;;;;;;;;;;;;6.19;86.86;101867.06;7350821;19;20554;-66
2022/12/07 03:17:37;;;;;;;;;;;;;;;6.19;86.64;101875.72;7349405;19;19923;-66
2022/12/07 03:20:07;;;;;;;;;;;;;;;6.17;87.01;101868.91;7351945;19;20336;-67
2022/12/07 03:22:35;;;;;;;;;;;;;;;6.19;87.38;101867.91;7346328;19;19923;-66
2022/12/07 03:25:07;;;;;;;;;;;;;;;6.20;86.83;101859.09;7351783;19;19925;-65
2022/12/07 03:27:46;;;;;;;;;;;;;;;6.19;87.20;101864.44;7348862;19;19954;-67
2022/12/07 03:30:16;;;;;;;;;;;;;;;6.18;87.25;101855.75;7350761;19;19919;-67
2022/12/07 03:33:03;;;;;;;;;;;;;;;6.21;86.81;101852.09;7349735;19;20032;-66
2022/12/07 03:35:36;;;;;;;;;;;;;;;6.18;86.85;101849.69;7350908;19;19931;-67
2022/12/07 03:38:08;;;;;;;;;;;;;;;6.17;86.59;101851.47;7346722;19;20033;-67
2022/12/07 03:40:37;;;;;;;;;;;;;;;6.18;86.80;101860.97;7351850;19;20458;-66
2022/12/07 03:43:04;;;;;;;;;;;;;;;6.19;87.05;101849.59;7350373;19;19926;-67
2022/12/07 03:45:38;;;;;;;;;;;;;;;6.21;86.55;101852.09;7352340;19;19939;-66
2022/12/07 03:48:09;;;;;;;;;;;;;;;6.19;86.54;101843.53;7348306;19;20231;-65
2022/12/07 03:50:36;;;;;;;;;;;;;;;6.21;86.42;101841.66;7345586;19;20262;-67
2022/12/07 03:53:12;;;;;;;;;;;;;;;6.20;86.77;101845.19;7359592;19;19927;-66
2022/12/07 03:55:42;;;;;;;;;;;;;;;6.19;86.99;101846.16;7353126;19;19918;-65
2022/12/07 03:58:10;;;;;;;;;;;;;;;6.20;86.67;101848.63;7351011;19;20361;-67
2022/12/07 04:00:37;;;;;;;;;;;;;;;6.19;86.71;101844.38;7347890;19;19919;-66
2022/12/07 04:03:04;;;;;;;;;;;;;;;6.21;86.96;101846.88;7350182;19;19934;-68
2022/12/07 04:05:30;;;;;;;;;;;;;;;6.21;86.93;101854.72;7348905;19;21353;-66
2022/12/07 04:07:57;;;;;;;;;;;;;;;6.21;86.29;101852.09;7348451;19;19927;-66
2022/12/07 04:10:24;;;;;;;;;;;;;;;6.19;86.60;101852.22;7350409;19;20489;-67
2022/12/07 04:12:50;;;;;;;;;;;;;;;6.19;86.65;101849.59;7347401;19;19918;-65
2022/12/07 04:15:17;;;;;;;;;;;;;;;6.18;86.78;101847.91;7349948;19;20236;-65
2022/12/07 04:17:44;;;;;;;;;;;;;;;6.21;86.64;101846.88;7345423;19;19954;-65
2022/12/07 04:20:11;;;;;;;;;;;;;;;6.20;86.39;101842.56;7350074;19;20254;-66
2022/12/07 04:22:37;;;;;;;;;;;;;;;6.17;86.38;101851.47;7345551;19;19919;-66
2022/12/07 04:25:04;;;;;;;;;;;;;;;6.18;86.51;101850.53;7349384;19;20275;-66
2022/12/07 04:27:31;;;;;;;;;;;;;;;6.17;86.38;101846.25;7349999;19;19926;-65
2022/12/07 04:29:58;;;;;;;;;;;;;;;6.17;86.84;101846.25;7357322;19;19927;-66
2022/12/07 04:32:31;;;;;;;;;;;;;;;6.16;86.21;101855.00;7355579;19;20002;-64
2022/12/07 04:34:58;;;;;;;;;;;;;;;6.14;86.26;101862.13;7357291;19;19923;-65
2022/12/07 04:37:24;;;;;;;;;;;;;;;6.14;86.50;101849.06;7352213;19;19919;-66
2022/12/07 04:39:51;;;;;;;;;;;;;;;6.14;86.05;101846.44;7357426;19;19919;-65
2022/12/07 04:42:19;;;;;;;;;;;;;;;6.10;86.15;101850.16;7356806;19;19947;-64
2022/12/07 04:44:46;;;;;;;;;;;;;;;6.11;87.19;101848.41;7356052;19;19923;-65
2022/12/07 04:47:13;;;;;;;;;;;;;;;6.13;87.01;101849.16;7354942;19;19944;-65
2022/12/07 04:49:39;;;;;;;;;;;;;;;6.18;86.64;101849.69;7356955;19;19919;-66
2022/12/07 04:52:06;;;;;;;;;;;;;;;6.18;86.67;101852.31;7351226;19;19914;-66
2022/12/07 04:54:33;;;;;;;;;;;;;;;6.21;86.25;101842.47;7356420;19;19923;-66
2022/12/07 04:56:59;;;;;;;;;;;;;;;6.21;85.88;101842.47;7351542;19;19947;-66
2022/12/07 04:59:26;;;;;;;;;;;;;;;6.17;86.47;101843.63;7356158;19;19938;-65
2022/12/07 05:01:53;;;;;;;;;;;;;;;6.19;87.15;101838.31;7354304;19;19922;-65
2022/12/07 05:04:19;;;;;;;;;;;;;;;6.23;86.97;101851.06;7356739;19;19977;-67
2022/12/07 05:06:46;;;;;;;;;;;;;;;6.25;86.05;101843.09;7351717;19;19923;-65
2022/12/07 05:09:13;;;;;;;;;;;;;;;6.23;86.17;101845.84;7356300;19;20015;-66
2022/12/07 05:11:40;;;;;;;;;;;;;;;6.23;86.61;101848.47;7359422;19;20374;-67
2022/12/07 05:14:08;;;;;;;;;;;;;;;6.25;86.65;101851.78;7355571;19;19919;-66
2022/12/07 05:16:35;;;;;;;;;;;;;;;6.26;85.69;101840.41;7354502;19;19919;-66
2022/12/07 05:19:02;;;;;;;;;;;;;;;6.26;85.22;101843.03;7349454;19;19966;-65
2022/12/07 05:21:29;;;;;;;;;;;;;;;6.23;84.99;101840.63;7351450;19;19923;-66
2022/12/07 05:23:56;;;;;;;;;;;;;;;6.22;85.78;101830.25;7355722;19;19919;-64
2022/12/07 05:26:22;;;;;;;;;;;;;;;6.21;85.56;101839.88;7354115;19;19919;-66
2022/12/07 05:28:56;;;;;;;;;;;;;;;6.22;85.60;101830.25;7353679;19;20248;-65
2022/12/07 05:31:24;;;;;;;;;;;;;;;6.21;85.45;101824.19;7349427;19;21919;-67
2022/12/07 05:33:50;;;;;;;;;;;;;;;6.23;85.69;101831.94;7355725;19;20196;-65
2022/12/07 05:36:17;;;;;;;;;;;;;;;6.28;85.95;101827.25;7351091;19;19919;-65
2022/12/07 05:38:44;;;;;;;;;;;;;;;6.32;85.68;101837.41;7352969;19;19921;-65
2022/12/07 05:42:11;;;;;;;;;;;;;;;6.37;84.34;101837.09;7354857;19;19921;-67
2022/12/07 05:44:00;;;;;;;;;;;;;;;6.33;83.71;101828.63;7355693;19;19941;-67
2022/12/07 05:46:27;;;;;;;;;;;;;;;6.29;83.83;101835.00;7356868;19;19962;-66
2022/12/07 05:48:53;;;;;;;;;;;;;;;6.28;84.25;101828.09;7355364;19;19918;-65
2022/12/07 05:51:21;;;;;;;;;;;;;;;6.28;84.72;101833.31;7351141;19;19944;-66
2022/12/07 05:53:48;;;;;;;;;;;;;;;6.29;84.37;101823.72;7356393;19;20422;-65
2022/12/07 05:56:15;;;;;;;;;;;;;;;6.26;84.14;101824.72;7352151;19;19923;-66
2022/12/07 06:01:27;;;;;;;;;;;;;;;6.26;83.89;101823.88;7353632;19;19923;-66
2022/12/07 06:03:55;;;;;;;;;;;;;;;6.27;84.25;101821.19;7353523;19;19923;-66
2022/12/07 06:06:22;;;;;;;;;;;;;;;6.29;84.08;101816.72;7351703;19;19941;-66
2022/12/07 06:08:48;;;;;;;;;;;;;;;6.33;84.03;101826.03;7355794;19;20239;-65
2022/12/07 06:14:00;;;;;;;;;;;;;;;6.30;83.03;101814.91;7354997;19;19953;-67
2022/12/07 06:16:27;;;;;;;;;;;;;;;6.29;83.26;101832.38;7353095;19;19930;-66
2022/12/07 06:18:53;;;;;;;;;;;;;;;6.33;83.16;101826.03;7353114;19;19926;-66
2022/12/07 06:21:20;;;;;;;;;;;;;;;6.31;83.01;101821.81;7349988;19;19923;-67
2022/12/07 06:23:47;;;;;;;;;;;;;;;6.29;82.83;101823.72;7354053;19;19930;-66
2022/12/07 06:26:14;;;;;;;;;;;;;;;6.27;82.79;101828.19;7350589;19;20308;-67
2022/12/07 06:28:41;;;;;;;;;;;;;;;6.23;82.77;101830.16;7353603;19;19934;-66
2022/12/07 06:31:08;;;;;;;;;;;;;;;6.21;83.10;101824.19;7350133;19;20451;-65
2022/12/07 06:33:39;;;;;;;;;;;;;;;6.22;82.95;101832.88;7352507;19;20357;-66
2022/12/07 06:36:06;;;;;;;;;;;;;;;6.20;83.56;101822.50;7349189;19;19926;-65
2022/12/07 06:38:33;;;;;;;;;;;;;;;6.24;83.10;101833.63;7352849;19;20339;-65
2022/12/07 06:41:00;;;;;;;;;;;;;;;6.22;83.04;101835.50;7352840;19;19954;-65
2022/12/07 06:43:27;;;;;;;;;;;;;;;6.22;83.28;101831.09;7353087;19;19923;-65
2022/12/07 06:45:53;;;;;;;;;;;;;;;6.24;83.50;101834.47;7351900;19;20349;-64
2022/12/07 06:48:20;;;;;;;;;;;;;;;6.27;83.59;101842.09;7353914;19;19922;-65
2022/12/07 06:50:48;;;;;;;;;;;;;;;6.30;83.30;101839.25;7345842;19;19987;-65
2022/12/07 06:53:20;;;;;;;;;;;;;;;6.32;83.24;101840.00;7352497;19;19933;-66
2022/12/07 06:55:46;;;;;;;;;;;;;;;6.32;82.93;101842.63;7351067;19;20387;-65
2022/12/07 06:58:13;;;;;;;;;;;;;;;6.32;83.31;101844.41;7352536;19;19937;-67
2022/12/07 07:01:02;;;;;;;;;;;;;;;6.31;83.12;101846.16;7349923;19;21586;-68
2022/12/07 07:03:49;;;;;;;;;;;;;;;6.31;83.51;101846.16;7350042;19;20550;-66
2022/12/07 07:06:16;;;;;;;;;;;;;;;6.32;82.91;101845.25;7347694;19;20122;-65
2022/12/07 07:08:43;;;;;;;;;;;;;;;6.31;83.11;101847.94;7351383;19;20300;-65
2022/12/07 07:11:32;;;;;;;;;;;;;;;6.27;82.79;101855.16;7351996;19;19993;-66
2022/12/07 07:14:02;;;;;;;;;;;;;;;6.27;82.75;101852.53;7351851;19;19994;-66
2022/12/07 07:16:30;;;;;;;;;;;;;;;6.26;82.85;101845.63;7350667;19;20858;-66
2022/12/07 07:18:57;;;;;;;;;;;;;;;6.29;82.86;101844.63;7349717;19;19922;-66
2022/12/07 07:21:24;;;;;;;;;;;;;;;6.31;83.06;101840.94;7347135;19;20288;-67
2022/12/07 07:23:51;;;;;;;;;;;;;;;6.30;82.83;101841.88;7351806;19;19967;-65
2022/12/07 07:26:18;;;;;;;;;;;;;;;6.29;82.53;101844.63;7352328;19;20290;-65
2022/12/07 07:28:48;;;;;;;;;;;;;;;6.30;82.18;101838.41;7351700;19;20098;-65
2022/12/07 07:31:15;;;;;;;;;;;;;;;6.31;83.00;101840.94;7349351;19;20398;-68
2022/12/07 07:33:42;;;;;;;;;;;;;;;6.31;83.11;101834.88;7348973;19;20526;-65
2022/12/07 07:36:08;;;;;;;;;;;;;;;6.31;82.51;101838.34;7347555;19;19929;-66
2022/12/07 07:38:35;;;;;;;;;;;;;;;6.33;82.41;101851.31;7349683;19;19938;-66
2022/12/07 07:41:02;;;;;;;;;;;;;;;6.34;82.45;101851.22;7349316;19;19957;-66
2022/12/07 07:43:29;;;;;;;;;;;;;;;6.39;82.34;101848.31;7350269;19;20543;-66
2022/12/07 07:45:56;;;;;;;;;;;;;;;6.39;81.68;101851.75;7348080;19;20340;-66
2022/12/07 07:48:25;;;;;;;;;;;;;;;6.38;81.44;101857.91;7351255;19;20676;-66
2022/12/07 07:50:51;;;;;;;;;;;;;;;6.39;81.31;101856.97;7344936;19;20442;-65
2022/12/07 07:53:18;;;;;;;;;;;;;;;6.37;80.78;101855.38;7349819;19;19919;-65
2022/12/07 07:55:53;;;;;;;;;;;;;;;6.32;80.74;101860.91;7349278;19;19935;-66
2022/12/07 07:58:20;;;;;;;;;;;;;;;6.26;81.26;101860.47;7349923;19;20105;-68
2022/12/07 08:00:47;;;;;;;;;;;;;;;6.22;81.18;101859.84;7339836;19;19926;-65
2022/12/07 08:03:14;;;;;;;;;;;;;;;6.19;80.98;101848.75;7354674;19;19934;-65
2022/12/07 08:05:40;;;;;;;;;;;;;;;6.14;80.89;101859.50;7343536;19;20039;-66
2022/12/07 08:08:07;;;;;;;;;;;;;;;6.12;81.45;101847.47;7353321;19;20293;-66
2022/12/07 08:10:35;;;;;;;;;;;;;;;6.07;81.49;101854.75;7356806;19;19980;-65
2022/12/07 08:13:11;;;;;;;;;;;;;;;6.06;81.57;101861.75;7354810;19;20409;-65
2022/12/07 08:15:38;;;;;;;;;;;;;;;6.06;81.64;101859.16;7356586;19;19934;-65
2022/12/07 08:18:05;;;;;;;;;;;;;;;6.05;82.69;101847.00;7356236;19;19989;-65
2022/12/07 08:20:33;;;;;;;;;;;;;;;6.04;82.94;101858.44;7355017;19;19919;-64
2022/12/07 08:22:59;;;;;;;;;;;;;;;6.07;82.21;101862.59;7354630;19;20279;-65
2022/12/07 08:25:27;;;;;;;;;;;;;;;6.06;82.02;101859.16;7358254;19;19922;-66
2022/12/07 08:27:54;;;;;;;;;;;;;;;6.06;81.79;101860.91;7355330;19;19925;-65
2022/12/07 08:30:22;;;;;;;;;;;;;;;6.03;82.30;101861.97;7356466;19;19934;-65
2022/12/07 08:32:48;;;;;;;;;;;;;;;6.08;82.47;101859.06;7354568;19;20275;-66
2022/12/07 08:35:15;;;;;;;;;;;;;;;6.12;82.13;101852.69;7356539;19;20413;-68
2022/12/07 08:37:42;;;;;;;;;;;;;;;6.12;82.40;101847.47;7352320;19;19923;-64
2022/12/07 08:40:10;;;;;;;;;;;;;;;6.13;82.44;101847.38;7354306;19;19923;-65
2022/12/07 08:42:39;;;;;;;;;;;;;;;6.11;82.41;101851.00;7355361;19;19938;-65
2022/12/07 08:45:08;;;;;;;;;;;;;;;6.10;81.80;101854.56;7357122;19;19925;-65
2022/12/07 08:47:37;;;;;;;;;;;;;;;6.08;81.72;101853.84;7353571;19;19930;-66
2022/12/07 08:50:05;;;;;;;;;;;;;;;6.07;81.42;101842.53;7359655;19;19919;-67
2022/12/07 08:52:32;;;;;;;;;;;;;;;6.04;81.90;101849.75;7350347;19;19927;-65
2022/12/07 08:55:00;;;;;;;;;;;;;;;6.04;81.74;101854.97;7358094;19;20831;-64
2022/12/07 08:57:27;;;;;;;;;;;;;;;6.04;81.52;101853.19;7352593;19;19918;-64
2022/12/07 08:59:54;;;;;;;;;;;;;;;6.05;81.45;101851.41;7353967;19;19922;-64
2022/12/07 09:02:21;;;;;;;;;;;;;;;6.06;81.85;101853.09;7354709;19;19945;-65
2022/12/07 09:04:48;;;;;;;;;;;;;;;6.05;82.12;101851.41;7355041;19;20344;-63
2022/12/07 09:07:15;;;;;;;;;;;;;;;6.05;82.63;101841.78;7350114;19;19931;-67
2022/12/07 09:09:42;;;;;;;;;;;;;;;6.07;82.71;101847.78;7358522;19;19938;-66
2022/12/07 09:12:10;;;;;;;;;;;;;;;6.06;82.37;101840.03;7353803;19;19934;-67
2022/12/07 09:14:36;;;;;;;;;;;;;;;6.07;82.73;101834.72;7355100;19;20459;-64
2022/12/07 09:17:10;;;;;;;;;;;;;;;6.08;82.93;101832.94;7351602;19;20703;-64
2022/12/07 09:19:37;;;;;;;;;;;;;;;6.05;82.51;101843.56;7354920;19;20197;-65
2022/12/07 09:22:04;;;;;;;;;;;;;;;6.03;82.22;101840.22;7351210;19;20209;-64
2022/12/07 09:24:31;;;;;;;;;;;;;;;6.04;82.66;101844.53;7357232;19;19915;-65
2022/12/07 09:26:58;;;;;;;;;;;;;;;6.02;82.27;101834.16;7354044;19;19918;-64
2022/12/07 09:29:25;;;;;;;;;;;;;;;6.03;81.75;101838.47;7355634;19;19922;-66
2022/12/07 09:31:52;;;;;;;;;;;;;;;6.06;80.97;101842.63;7349809;19;20431;-66
2022/12/07 09:34:20;;;;;;;;;;;;;;;6.08;80.98;101836.38;7358156;19;19923;-66
2022/12/07 09:36:46;;;;;;;;;;;;;;;6.11;80.28;101838.78;7350911;19;19989;-63
2022/12/07 09:39:13;;;;;;;;;;;;;;;6.10;79.60;101836.25;7353631;19;19922;-66
2022/12/07 09:41:42;;;;;;;;;;;;;;;6.09;79.49;101837.22;7353418;19;20219;-65
2022/12/07 09:44:14;;;;;;;;;;;;;;;6.11;79.38;101827.50;7351892;19;19931;-67
2022/12/07 09:46:43;;;;;;;;;;;;;;;6.10;79.10;101826.66;7353628;19;20319;-65
2022/12/07 09:49:12;;;;;;;;;;;;;;;6.13;78.96;101828.25;7353966;19;19926;-66
2022/12/07 09:51:39;;;;;;;;;;;;;;;6.10;78.82;101823.22;7348900;19;20470;-66
2022/12/07 09:54:06;;;;;;;;;;;;;;;6.10;78.95;101831.88;7353803;19;19958;-64
2022/12/07 09:56:33;;;;;;;;;;;;;;;6.09;78.48;101832.84;7354260;19;20590;-65
2022/12/07 09:59:01;;;;;;;;;;;;;;;6.09;78.65;101832.84;7353569;19;19922;-64
2022/12/07 10:01:29;;;;;;;;;;;;;;;6.10;78.81;101837.09;7351731;19;19929;-66
2022/12/07 10:04:01;;;;;;;;;;;;;;;6.11;78.86;101832.72;7353918;19;19926;-64
2022/12/07 10:06:28;;;;;;;;;;;;;;;6.11;78.27;101827.50;7348922;19;19926;-66
2022/12/07 10:08:55;;;;;;;;;;;;;;;6.11;78.49;101830.13;7354592;19;19941;-65
2022/12/07 10:11:21;;;;;;;;;;;;;;;6.13;78.61;101830.88;7355226;19;21123;-65
2022/12/07 10:13:53;;;;;;;;;;;;;;;6.14;78.79;101824.72;7352271;19;19922;-66
2022/12/07 10:16:27;;;;;;;;;;;;;;;6.17;78.46;101829.72;7353297;19;19922;-65
2022/12/07 10:18:54;;;;;;;;;;;;;;;6.17;78.10;101817.50;7354190;19;20306;-65
2022/12/07 10:21:25;;;;;;;;;;;;;;;6.21;78.96;101811.13;7349531;19;19926;-65
2022/12/07 10:24:00;;;;;;;;;;;;;;;6.26;78.82;101813.44;7354001;19;19911;-65
2022/12/07 10:26:31;;;;;;;;;;;;;;;6.27;78.17;101809.91;7353975;19;20330;-65
2022/12/07 10:28:59;;;;;;;;;;;;;;;6.27;77.85;101792.44;7355972;19;20356;-66
2022/12/07 10:31:26;;;;;;;;;;;;;;;6.30;77.80;101791.38;7351338;19;19915;-66
2022/12/07 10:34:00;;;;;;;;;;;;;;;6.32;78.26;101792.97;7351259;19;20283;-65
2022/12/07 10:36:35;;;;;;;;;;;;;;;6.35;77.96;101786.69;7350099;19;20547;-65
2022/12/07 10:39:11;;;;;;;;;;;;;;;6.36;77.73;101780.53;7353283;19;19926;-64
2022/12/07 10:41:55;;;;;;;;;;;;;;;6.43;78.42;101785.25;7350089;19;19941;-64
2022/12/07 10:44:32;;;;;;;;;;;;;;;6.46;77.69;101781.59;7351066;19;19923;-64
2022/12/07 10:47:17;;;;;;;;;;;;;;;6.49;78.37;101776.19;7352178;19;20271;-64
2022/12/07 10:49:50;;;;;;;;;;;;;;;6.54;78.39;101778.47;7353114;19;19929;-65
2022/12/07 10:52:37;;;;;;;;;;;;;;;6.59;78.09;101772.00;7348663;19;19947;-64
2022/12/07 10:55:06;;;;;;;;;;;;;;;6.63;77.12;101776.06;7354381;19;19926;-65
2022/12/07 10:57:33;;;;;;;;;;;;;;;6.65;77.35;101771.59;7350879;19;19945;-65
2022/12/07 11:00:08;;;;;;;;;;;;;;;6.67;77.04;101769.69;7352270;19;20142;-65
2022/12/07 11:02:58;;;;;;;;;;;;;;;6.70;77.37;101784.34;7350927;19;19935;-66
2022/12/07 11:05:24;;;;;;;;;;;;;;;6.75;77.71;101777.03;7352958;19;19919;-66
2022/12/07 11:08:05;;;;;;;;;;;;;;;6.73;77.54;101771.91;7347889;19;19918;-65
2022/12/07 11:10:39;;;;;;;;;;;;;;;6.76;77.12;101763.00;7353142;19;20380;-64
2022/12/07 11:13:24;;;;;;;;;;;;;;;6.71;75.53;101754.63;7290702;19;20516;-64
2022/12/07 11:15:54;;;;;;;;;;;;;;;6.71;76.21;101749.41;7341579;19;21608;-65
2022/12/07 11:18:26;;;;;;;;;;;;;;;6.74;75.95;101759.66;7341974;19;21254;-65
2022/12/07 11:21:00;;;;;;;;;;;;;;;6.75;75.43;101754.34;7336962;19;19926;-65
2022/12/07 11:23:27;;;;;;;;;;;;;;;6.75;75.80;101746.50;7344044;19;20636;-64
2022/12/07 11:26:12;;;;;;;;;;;;;;;6.76;75.34;101742.91;7347013;19;19953;-66
2022/12/07 11:28:57;;;;;;;;;;;;;;;6.78;75.44;101738.44;7346348;19;20656;-65
2022/12/07 11:31:43;;;;;;;;;;;;;;;6.73;75.38;101724.84;7341226;19;20007;-64
2022/12/07 11:34:13;;;;;;;;;;;;;;;6.73;75.74;101726.59;7345081;19;20417;-64
2022/12/07 11:36:48;;;;;;;;;;;;;;;6.74;75.86;101728.28;7339499;19;20260;-64
2022/12/07 11:39:21;;;;;;;;;;;;;;;6.77;76.40;101720.22;7344652;19;19918;-65
2022/12/07 11:41:52;;;;;;;;;;;;;;;6.83;77.21;101720.63;7344450;19;19923;-65
2022/12/07 11:44:18;;;;;;;;;;;;;;;6.91;76.53;101722.69;7344476;19;19911;-64
2022/12/07 11:47:02;;;;;;;;;;;;;;;6.97;75.61;101717.03;7345022;19;20018;-65
2022/12/07 11:49:53;;;;;;;;;;;;;;;7.01;75.33;101715.06;7342189;19;19915;-65
2022/12/07 11:52:39;;;;;;;;;;;;;;;7.02;74.50;101717.56;7339542;19;19939;-66
2022/12/07 11:55:15;;;;;;;;;;;;;;;7.00;74.27;101714.25;7350127;19;19931;-66
2022/12/07 11:57:45;;;;;;;;;;;;;;;7.00;74.84;101705.53;7346086;19;19939;-65
2022/12/07 12:00:14;;;;;;;;;;;;;;;7.00;75.20;101710.78;7345750;19;21204;-65
2022/12/07 12:02:46;;;;;;;;;;;;;;;7.04;75.19;101709.63;7340335;19;20231;-66
2022/12/07 12:05:15;;;;;;;;;;;;;;;7.03;74.68;101700.09;7348347;19;20658;-66
2022/12/07 12:07:43;;;;;;;;;;;;;;;7.01;75.43;101697.56;7344456;19;19961;-67
2022/12/07 12:10:45;;;;;;;;;;;;;;;7.07;74.88;101686.69;7347160;19;19938;-65
2022/12/07 12:13:36;;;;;;;;;;;;;;;7.09;74.87;101676.94;7347766;19;20359;-64
2022/12/07 12:16:38;;;;;;;;;;;;;;;7.12;74.55;101671.47;7343437;19;20372;-64
2022/12/07 12:19:24;;;;;;;;;;;;;;;7.17;74.98;101669.38;7347926;19;20350;-67
2022/12/07 12:21:55;;;;;;;;;;;;;;;7.21;74.28;101660.34;7343781;19;19919;-64
2022/12/07 12:24:26;;;;;;;;;;;;;;;7.23;74.37;101660.25;7347957;19;19966;-65
2022/12/07 12:27:04;;;;;;;;;;;;;;;7.25;74.50;101653.97;7349627;19;20006;-64
2022/12/07 12:29:35;;;;;;;;;;;;;;;7.27;74.69;101656.47;7347782;19;20405;-65
2022/12/07 12:32:16;;;;;;;;;;;;;;;7.29;74.87;101655.41;7346889;19;19941;-66
2022/12/07 12:34:47;;;;;;;;;;;;;;;7.32;74.53;101654.34;7349411;19;19958;-65
2022/12/07 12:37:34;;;;;;;;;;;;;;;7.34;74.28;101649.00;7342795;19;19945;-65
2022/12/07 12:40:16;;;;;;;;;;;;;;;7.38;75.37;101642.59;7346863;19;19962;-64
2022/12/07 12:42:53;;;;;;;;;;;;;;;7.43;74.65;101641.31;7345561;19;19949;-65
2022/12/07 12:45:27;;;;;;;;;;;;;;;7.49;74.38;101640.03;7347103;19;19948;-65
2022/12/07 12:48:01;;;;;;;;;;;;;;;7.53;74.44;101637.06;7347213;19;20276;-65
2022/12/07 12:50:28;;;;;;;;;;;;;;;7.61;74.30;101639.13;7354993;19;20543;-65
2022/12/07 12:52:56;;;;;;;;;;;;;;;7.67;74.24;101636.88;7350478;19;19910;-65
2022/12/07 12:55:47;;;;;;;;;;;;;;;7.74;73.29;101629.41;7354628;19;19930;-64
2022/12/07 12:58:17;;;;;;;;;;;;;;;7.78;72.57;101630.84;7352502;19;19923;-64
2022/12/07 13:00:49;;;;;;;;;;;;;;;7.82;72.79;101623.63;7354360;19;20228;-65
2022/12/07 13:03:29;;;;;;;;;;;;;;;7.81;72.33;101619.31;7355035;19;19927;-65
2022/12/07 13:06:15;;;;;;;;;;;;;;;7.79;71.97;101608.94;7351535;19;20204;-65
2022/12/07 13:08:42;;;;;;;;;;;;;;;7.78;72.48;101609.06;7355350;19;19914;-64
2022/12/07 13:11:20;;;;;;;;;;;;;;;7.80;72.98;101610.63;7354052;19;19946;-66
2022/12/07 13:13:47;;;;;;;;;;;;;;;7.83;73.46;101605.13;7352248;19;19931;-65
2022/12/07 13:16:13;;;;;;;;;;;;;;;7.87;73.40;101595.28;7347115;19;20252;-65